createdAt,value
2023-02-03T00:00:19.000Z,12.1
2023-02-03T00:01:32.000Z,12.3
2023-02-03T00:02:44.000Z,12.1
2023-02-03T00:03:56.000Z,11.9
2023-02-03T00:05:08.000Z,12.5
2023-02-03T00:06:20.000Z,12.3
2023-02-03T00:07:32.000Z,12.1
2023-02-03T00:08:45.000Z,11.8
2023-02-03T00:09:57.000Z,12
2023-02-03T00:11:09.000Z,11.9
2023-02-03T00:12:21.000Z,12
2023-02-03T00:13:33.000Z,12
2023-02-03T00:14:46.000Z,11.9
2023-02-03T00:15:57.000Z,12.1
2023-02-03T00:17:09.000Z,12
2023-02-03T00:18:21.000Z,11.9
2023-02-03T00:19:33.000Z,11.9
2023-02-03T00:20:46.000Z,12
2023-02-03T00:21:58.000Z,12
2023-02-03T00:23:10.000Z,12.7
2023-02-03T00:24:22.000Z,12.2
2023-02-03T00:25:34.000Z,12
2023-02-03T00:26:46.000Z,11.8
2023-02-03T00:27:59.000Z,11.9
2023-02-03T00:29:11.000Z,11.9
2023-02-03T00:30:23.000Z,11.8
2023-02-03T00:31:35.000Z,12
2023-02-03T00:32:46.000Z,11.9
2023-02-03T00:33:59.000Z,12.1
2023-02-03T00:35:11.000Z,12.1
2023-02-03T00:36:23.000Z,12.1
2023-02-03T00:37:35.000Z,12
2023-02-03T00:38:47.000Z,12
2023-02-03T00:40:00.000Z,11.8
2023-02-03T00:41:12.000Z,11.8
2023-02-03T00:42:24.000Z,11.9
2023-02-03T00:43:36.000Z,12.1
2023-02-03T00:44:48.000Z,12
2023-02-03T00:46:00.000Z,11.8
2023-02-03T00:47:13.000Z,12.6
2023-02-03T00:48:24.000Z,12.1
2023-02-03T00:49:36.000Z,12
2023-02-03T00:50:48.000Z,12.1
2023-02-03T00:52:00.000Z,12
2023-02-03T00:53:13.000Z,12
2023-02-03T00:54:25.000Z,11.8
2023-02-03T00:55:37.000Z,11.9
2023-02-03T00:56:49.000Z,11.8
2023-02-03T00:58:01.000Z,11.8
2023-02-03T00:59:14.000Z,12
2023-02-03T01:00:26.000Z,12.1
2023-02-03T01:01:38.000Z,12.1
2023-02-03T01:02:50.000Z,12.1
2023-02-03T01:04:01.000Z,11.8
2023-02-03T01:05:13.000Z,11.8
2023-02-03T01:06:26.000Z,11.8
2023-02-03T01:07:38.000Z,12.1
2023-02-03T01:08:50.000Z,11.9
2023-02-03T01:10:02.000Z,12.3
2023-02-03T01:11:14.000Z,12.3
2023-02-03T01:12:27.000Z,11.9
2023-02-03T01:13:39.000Z,12
2023-02-03T01:14:51.000Z,11.8
2023-02-03T01:16:03.000Z,12.1
2023-02-03T01:17:18.082Z,12
2023-02-03T01:18:28.000Z,12.1
2023-02-03T01:19:39.000Z,12.5
2023-02-03T01:20:51.000Z,12.1
2023-02-03T01:22:03.000Z,12.3
2023-02-03T01:23:15.000Z,12
2023-02-03T01:24:27.000Z,12
2023-02-03T01:25:40.000Z,11.9
2023-02-03T01:26:52.000Z,12.3
2023-02-03T01:28:04.000Z,12.2
2023-02-03T01:29:16.000Z,12.2
2023-02-03T01:30:28.000Z,11.8
2023-02-03T01:31:41.000Z,12.5
2023-02-03T01:32:53.000Z,11.9
2023-02-03T01:34:07.692Z,12
2023-02-03T01:35:16.000Z,11.9
2023-02-03T01:36:28.000Z,12.1
2023-02-03T01:37:41.000Z,12.5
2023-02-03T01:38:53.000Z,12.4
2023-02-03T01:40:05.000Z,12.1
2023-02-03T01:41:17.000Z,11.9
2023-02-03T01:42:29.000Z,12.5
2023-02-03T01:43:41.000Z,12
2023-02-03T01:44:54.000Z,12.1
2023-02-03T01:46:06.000Z,12.2
2023-02-03T01:47:18.000Z,12.6
2023-02-03T01:48:30.000Z,12
2023-02-03T01:49:42.000Z,12.1
2023-02-03T01:50:55.000Z,12
2023-02-03T01:52:08.527Z,12.1
2023-02-03T01:53:18.000Z,12.3
2023-02-03T01:54:30.000Z,11.9
2023-02-03T01:55:42.000Z,12.1
2023-02-03T01:56:54.000Z,12.1
2023-02-03T01:58:07.000Z,12
2023-02-03T01:59:19.000Z,11.9
2023-02-03T02:00:31.000Z,12.3
2023-02-03T02:01:43.000Z,12
2023-02-03T02:02:55.000Z,12.4
2023-02-03T02:04:08.000Z,12.3
2023-02-03T02:05:20.000Z,12
2023-02-03T02:06:32.000Z,12
2023-02-03T02:07:43.000Z,12.2
2023-02-03T02:08:55.000Z,12.5
2023-02-03T02:10:08.000Z,12.6
2023-02-03T02:11:20.000Z,12.1
2023-02-03T02:12:32.000Z,12.2
2023-02-03T02:13:44.000Z,12.5
2023-02-03T02:14:56.000Z,12
2023-02-03T02:16:08.000Z,12.3
2023-02-03T02:17:21.000Z,12.4
2023-02-03T02:18:33.000Z,12.4
2023-02-03T02:19:45.000Z,12.1
2023-02-03T02:20:57.000Z,12.6
2023-02-03T02:22:09.000Z,12.3
2023-02-03T02:23:22.000Z,11.9
2023-02-03T02:24:33.000Z,12
2023-02-03T02:25:45.000Z,12.2
2023-02-03T02:26:57.000Z,12.3
2023-02-03T02:28:09.000Z,12.2
2023-02-03T02:29:22.000Z,12.4
2023-02-03T02:30:34.000Z,12.4
2023-02-03T02:31:46.000Z,12.5
2023-02-03T02:32:58.000Z,12.5
2023-02-03T02:34:10.000Z,12.1
2023-02-03T02:35:22.000Z,12.1
2023-02-03T02:36:35.000Z,12
2023-02-03T02:37:47.000Z,12.5
2023-02-03T02:38:59.000Z,12.5
2023-02-03T02:40:11.000Z,12.4
2023-02-03T02:41:22.000Z,12.3
2023-02-03T02:42:35.000Z,12.1
2023-02-03T02:43:47.000Z,12.1
2023-02-03T02:44:59.000Z,12.1
2023-02-03T02:46:11.000Z,12.4
2023-02-03T02:47:23.000Z,12
2023-02-03T02:48:36.000Z,12.4
2023-02-03T02:49:48.000Z,12.1
2023-02-03T02:51:00.000Z,12.5
2023-02-03T02:52:12.000Z,12.4
2023-02-03T02:53:24.000Z,12.3
2023-02-03T02:54:36.000Z,12.1
2023-02-03T02:55:49.000Z,12
2023-02-03T02:57:00.000Z,12.6
2023-02-03T02:58:12.000Z,12
2023-02-03T02:59:24.000Z,12.5
2023-02-03T03:00:36.000Z,12.3
2023-02-03T03:01:49.000Z,12.6
2023-02-03T03:03:01.000Z,12.5
2023-02-03T03:04:13.000Z,12.3
2023-02-03T03:05:25.000Z,12.3
2023-02-03T03:06:37.000Z,12.6
2023-02-03T03:07:52.329Z,12.3
2023-02-03T03:09:02.000Z,12.6
2023-02-03T03:10:14.000Z,12.3
2023-02-03T03:11:26.000Z,12.7
2023-02-03T03:12:37.000Z,12.1
2023-02-03T03:13:49.000Z,12.3
2023-02-03T03:15:02.000Z,12.5
2023-02-03T03:16:14.000Z,12.3
2023-02-03T03:17:26.000Z,12.3
2023-02-03T03:18:38.000Z,12
2023-02-03T03:19:50.000Z,12.3
2023-02-03T03:21:03.000Z,12
2023-02-03T03:22:15.000Z,12
2023-02-03T03:23:27.000Z,12.4
2023-02-03T03:24:39.000Z,12.3
2023-02-03T03:25:51.000Z,12.3
2023-02-03T03:27:03.000Z,12.1
2023-02-03T03:28:15.000Z,12.4
2023-02-03T03:29:27.000Z,12.4
2023-02-03T03:30:39.000Z,12.5
2023-02-03T03:31:51.000Z,12.4
2023-02-03T03:33:03.000Z,12.5
2023-02-03T03:34:16.000Z,12.2
2023-02-03T03:35:30.650Z,12.6
2023-02-03T03:36:40.000Z,12.5
2023-02-03T03:37:52.000Z,12.5
2023-02-03T03:39:04.000Z,12.6
2023-02-03T03:40:17.000Z,12
2023-02-03T03:41:29.000Z,12
2023-02-03T03:42:41.000Z,12.2
2023-02-03T03:43:52.000Z,12
2023-02-03T03:45:04.000Z,12.2
2023-02-03T03:46:18.374Z,12.5
2023-02-03T03:47:28.000Z,12.9
2023-02-03T03:48:40.000Z,12
2023-02-03T03:49:52.000Z,12.2
2023-02-03T03:51:04.000Z,12.6
2023-02-03T03:52:16.000Z,12.4
2023-02-03T03:53:29.000Z,12.2
2023-02-03T03:54:41.000Z,12.6
2023-02-03T03:55:53.000Z,12.3
2023-02-03T03:57:05.000Z,12.2
2023-02-03T03:58:17.000Z,12.3
2023-02-03T03:59:30.000Z,12
2023-02-03T04:00:42.000Z,12.1
2023-02-03T04:01:54.000Z,12
2023-02-03T04:03:05.000Z,12
2023-02-03T04:04:17.000Z,12.3
2023-02-03T04:05:30.000Z,12.5
2023-02-03T04:06:42.000Z,12.6
2023-02-03T04:07:54.000Z,12.1
2023-02-03T04:09:06.000Z,12
2023-02-03T04:10:18.000Z,12.4
2023-02-03T04:11:30.000Z,12.3
2023-02-03T04:12:43.000Z,12.1
2023-02-03T04:13:55.000Z,12.5
2023-02-03T04:15:07.000Z,12.3
2023-02-03T04:16:19.000Z,12
2023-02-03T04:17:31.000Z,11.9
2023-02-03T04:18:43.000Z,12.6
2023-02-03T04:19:55.000Z,12.6
2023-02-03T04:21:07.000Z,12.6
2023-02-03T04:22:19.000Z,12.6
2023-02-03T04:23:31.000Z,12.4
2023-02-03T04:24:43.000Z,12.8
2023-02-03T04:25:56.000Z,12.2
2023-02-03T04:27:08.000Z,12.8
2023-02-03T04:28:20.000Z,12.6
2023-02-03T04:29:32.000Z,12.6
2023-02-03T04:30:44.000Z,12.3
2023-02-03T04:31:57.000Z,12.6
2023-02-03T04:33:09.000Z,12.5
2023-02-03T04:34:20.000Z,12.6
2023-02-03T04:35:35.058Z,12.5
2023-02-03T04:36:44.000Z,12.6
2023-02-03T04:37:57.000Z,12.3
2023-02-03T04:39:09.000Z,12.3
2023-02-03T04:40:21.000Z,12.3
2023-02-03T04:41:35.999Z,12.5
2023-02-03T04:42:45.000Z,12.1
2023-02-03T04:43:57.000Z,12.6
2023-02-03T04:45:10.000Z,12.6
2023-02-03T04:46:22.000Z,12.3
2023-02-03T04:47:34.000Z,12.5
2023-02-03T04:48:49.118Z,12.5
2023-02-03T04:49:57.000Z,12.3
2023-02-03T04:51:10.000Z,12.6
2023-02-03T04:52:22.000Z,12.5
2023-02-03T04:53:34.000Z,12.2
2023-02-03T04:54:46.000Z,12.6
2023-02-03T04:55:58.000Z,12.6
2023-02-03T04:57:11.000Z,12.1
2023-02-03T04:58:23.000Z,12.6
2023-02-03T04:59:35.000Z,12.3
2023-02-03T05:00:47.000Z,12.7
2023-02-03T05:01:59.000Z,12.5
2023-02-03T05:03:11.000Z,12.6
2023-02-03T05:04:24.000Z,12.7
2023-02-03T05:05:35.000Z,12.5
2023-02-03T05:06:47.000Z,12.6
2023-02-03T05:07:59.000Z,12.3
2023-02-03T05:09:11.000Z,12.3
2023-02-03T05:10:24.000Z,12.5
2023-02-03T05:11:36.000Z,12.5
2023-02-03T05:12:48.000Z,12.3
2023-02-03T05:14:00.000Z,12.4
2023-02-03T05:15:12.000Z,12.8
2023-02-03T05:16:25.000Z,12.5
2023-02-03T05:17:37.000Z,12.5
2023-02-03T05:18:49.000Z,12.3
2023-02-03T05:20:01.000Z,12.6
2023-02-03T05:21:12.000Z,12.5
2023-02-03T05:22:24.000Z,12.3
2023-02-03T05:23:37.000Z,12.5
2023-02-03T05:24:49.000Z,12.4
2023-02-03T05:26:01.000Z,12.5
2023-02-03T05:27:13.000Z,12.7
2023-02-03T05:28:25.000Z,12.6
2023-02-03T05:29:38.000Z,12.6
2023-02-03T05:30:50.000Z,12.3
2023-02-03T05:32:02.000Z,12.6
2023-02-03T05:33:14.000Z,12.6
2023-02-03T05:34:26.000Z,12.6
2023-02-03T05:35:41.436Z,12.5
2023-02-03T05:36:50.000Z,12.3
2023-02-03T05:38:02.000Z,12.5
2023-02-03T05:39:14.000Z,12.7
2023-02-03T05:40:26.000Z,12.3
2023-02-03T05:41:38.000Z,12.8
2023-02-03T05:42:51.000Z,12.3
2023-02-03T05:44:03.000Z,12.4
2023-02-03T05:45:15.000Z,12.3
2023-02-03T05:46:27.000Z,12.7
2023-02-03T05:47:39.000Z,12.6
2023-02-03T05:48:52.000Z,12.6
2023-02-03T05:50:04.000Z,12.5
2023-02-03T05:51:16.000Z,12.5
2023-02-03T05:52:27.000Z,12.3
2023-02-03T05:53:39.000Z,12.5
2023-02-03T05:54:52.000Z,12.6
2023-02-03T05:56:04.000Z,12.5
2023-02-03T05:57:16.000Z,12.4
2023-02-03T05:58:28.000Z,12.5
2023-02-03T05:59:40.000Z,12.6
2023-02-03T06:00:52.000Z,12.3
2023-02-03T06:02:05.000Z,12.8
2023-02-03T06:03:17.000Z,12.4
2023-02-03T06:04:29.000Z,12.3
2023-02-03T06:05:41.000Z,12.7
2023-02-03T06:06:53.000Z,12.3
2023-02-03T06:08:07.513Z,12.7
2023-02-03T06:09:17.000Z,12.6
2023-02-03T06:10:29.000Z,12.6
2023-02-03T06:11:41.000Z,12.3
2023-02-03T06:12:53.000Z,12.3
2023-02-03T06:14:06.000Z,12.8
2023-02-03T06:15:18.000Z,12.8
2023-02-03T06:16:30.000Z,12.6
2023-02-03T06:17:42.000Z,12.6
2023-02-03T06:18:54.000Z,12.3
2023-02-03T06:20:06.000Z,12.7
2023-02-03T06:21:19.000Z,12.5
2023-02-03T06:22:31.000Z,12.6
2023-02-03T06:23:42.000Z,12.3
2023-02-03T06:24:54.000Z,12.3
2023-02-03T06:26:06.000Z,12.4
2023-02-03T06:27:19.000Z,12.6
2023-02-03T06:28:31.000Z,12.5
2023-02-03T06:29:43.416Z,12.4
2023-02-03T06:30:55.000Z,12.3
2023-02-03T06:32:07.000Z,12.8
2023-02-03T06:33:19.000Z,12.7
2023-02-03T06:34:32.000Z,12.5
2023-02-03T06:35:44.000Z,12.3
2023-02-03T06:36:56.000Z,12.5
2023-02-03T06:38:08.000Z,12.6
2023-02-03T06:39:19.000Z,12.5
2023-02-03T06:40:32.000Z,12.8
2023-02-03T06:41:44.000Z,12.7
2023-02-03T06:42:56.000Z,12.3
2023-02-03T06:44:08.000Z,12.7
2023-02-03T06:45:20.000Z,12.6
2023-02-03T06:46:33.000Z,12.4
2023-02-03T06:47:45.000Z,12.8
2023-02-03T06:48:57.000Z,12.6
2023-02-03T06:50:09.000Z,12.5
2023-02-03T06:51:21.000Z,12.3
2023-02-03T06:52:33.000Z,12.6
2023-02-03T06:53:46.000Z,12.7
2023-02-03T06:54:57.000Z,12.3
2023-02-03T06:56:09.000Z,12.9
2023-02-03T06:57:21.000Z,12.5
2023-02-03T06:58:33.000Z,12.6
2023-02-03T06:59:46.000Z,12.5
2023-02-03T07:00:58.000Z,12.6
2023-02-03T07:02:10.000Z,12.5
2023-02-03T07:03:22.000Z,12.8
2023-02-03T07:04:34.000Z,12.6
2023-02-03T07:05:46.000Z,12.5
2023-02-03T07:06:59.000Z,12.6
2023-02-03T07:08:11.000Z,12.5
2023-02-03T07:09:23.000Z,12.8
2023-02-03T07:10:34.000Z,12.5
2023-02-03T07:11:46.000Z,12.7
2023-02-03T07:12:59.000Z,12.6
2023-02-03T07:14:11.000Z,12.3
2023-02-03T07:15:23.000Z,12.3
2023-02-03T07:16:35.000Z,12.6
2023-02-03T07:17:47.000Z,12.3
2023-02-03T07:19:02.495Z,12.6
2023-02-03T07:20:12.000Z,12.8
2023-02-03T07:21:24.000Z,12.7
2023-02-03T07:22:36.000Z,12.6
2023-02-03T07:23:48.000Z,12.6
2023-02-03T07:25:00.000Z,12.7
2023-02-03T07:26:12.000Z,12.4
2023-02-03T07:27:24.000Z,12.5
2023-02-03T07:28:36.000Z,12.6
2023-02-03T07:29:48.000Z,12.6
2023-02-03T07:31:00.000Z,12.5
2023-02-03T07:32:13.000Z,12.7
2023-02-03T07:33:25.000Z,12.3
2023-02-03T07:34:37.000Z,12.5
2023-02-03T07:35:49.000Z,12.6
2023-02-03T07:37:01.000Z,12.3
2023-02-03T07:38:13.000Z,12.4
2023-02-03T07:39:26.000Z,12.6
2023-02-03T07:40:38.000Z,12.3
2023-02-03T07:41:49.000Z,12.8
2023-02-03T07:43:01.000Z,12.6
2023-02-03T07:44:13.000Z,12.3
2023-02-03T07:45:26.000Z,12.7
2023-02-03T07:46:38.000Z,12.5
2023-02-03T07:47:49.000Z,12.3
2023-02-03T07:49:01.000Z,12.6
2023-02-03T07:50:16.352Z,12.7
2023-02-03T07:51:26.000Z,12.5
2023-02-03T07:52:38.000Z,12.8
2023-02-03T07:53:50.000Z,12.6
2023-02-03T07:55:02.000Z,12.8
2023-02-03T07:56:14.000Z,12.5
2023-02-03T07:57:26.000Z,12.7
2023-02-03T07:58:39.000Z,13
2023-02-03T07:59:51.000Z,12.7
2023-02-03T08:01:03.000Z,12.6
2023-02-03T08:02:15.000Z,12.7
2023-02-03T08:03:26.000Z,12.5
2023-02-03T08:04:39.000Z,12.6
2023-02-03T08:05:51.000Z,12.3
2023-02-03T08:07:03.000Z,12.5
2023-02-03T08:08:15.000Z,12.6
2023-02-03T08:09:27.000Z,12.5
2023-02-03T08:10:40.000Z,12.5
2023-02-03T08:11:52.000Z,12.8
2023-02-03T08:13:04.000Z,12.5
2023-02-03T08:14:16.000Z,12.5
2023-02-03T08:15:28.000Z,12.4
2023-02-03T08:16:40.000Z,12.5
2023-02-03T08:17:53.000Z,12.7
2023-02-03T08:19:04.000Z,12.7
2023-02-03T08:20:16.000Z,12.5
2023-02-03T08:21:28.000Z,12.6
2023-02-03T08:22:40.000Z,12.6
2023-02-03T08:23:53.000Z,12.5
2023-02-03T08:25:05.000Z,12.8
2023-02-03T08:26:17.000Z,13.1
2023-02-03T08:27:29.000Z,13.2
2023-02-03T08:28:41.000Z,12.4
2023-02-03T08:29:53.000Z,12.7
2023-02-03T08:31:06.000Z,13.1
2023-02-03T08:32:18.000Z,12.7
2023-02-03T08:33:30.000Z,12.7
2023-02-03T08:34:42.000Z,12.4
2023-02-03T08:35:54.000Z,12.4
2023-02-03T08:37:06.000Z,12.7
2023-02-03T08:38:18.000Z,12.7
2023-02-03T08:39:30.000Z,12.7
2023-02-03T08:40:42.000Z,13.1
2023-02-03T08:41:54.000Z,12.6
2023-02-03T08:43:07.000Z,12.5
2023-02-03T08:44:19.000Z,12.3
2023-02-03T08:45:31.000Z,12.5
2023-02-03T08:46:43.000Z,12.4
2023-02-03T08:47:55.000Z,12.5
2023-02-03T08:49:07.000Z,12.8
2023-02-03T08:50:20.000Z,13
2023-02-03T08:51:32.000Z,12.6
2023-02-03T08:52:43.000Z,12.5
2023-02-03T08:53:55.000Z,12.7
2023-02-03T08:55:07.000Z,12.6
2023-02-03T08:56:20.000Z,12.7
2023-02-03T08:57:32.000Z,12.5
2023-02-03T08:58:44.000Z,12.5
2023-02-03T08:59:56.000Z,12.7
2023-02-03T09:01:11.000Z,12.4
2023-02-03T09:02:20.000Z,12.7
2023-02-03T09:03:33.000Z,12.6
2023-02-03T09:04:45.000Z,12.5
2023-02-03T09:05:57.000Z,13
2023-02-03T09:07:09.000Z,12.5
2023-02-03T09:08:21.000Z,12.3
2023-02-03T09:09:33.000Z,12.7
2023-02-03T09:10:45.000Z,12.5
2023-02-03T09:11:57.000Z,12.7
2023-02-03T09:13:09.000Z,12.5
2023-02-03T09:14:21.000Z,12.6
2023-02-03T09:15:34.000Z,12.7
2023-02-03T09:16:46.000Z,12.5
2023-02-03T09:17:58.000Z,13.1
2023-02-03T09:19:10.000Z,12.6
2023-02-03T09:20:22.000Z,12.6
2023-02-03T09:21:34.000Z,12.5
2023-02-03T09:22:47.000Z,12.7
2023-02-03T09:23:59.000Z,12.5
2023-02-03T09:25:10.000Z,12.6
2023-02-03T09:26:22.000Z,13
2023-02-03T09:27:34.000Z,12.7
2023-02-03T09:28:47.000Z,12.5
2023-02-03T09:29:59.000Z,12.5
2023-02-03T09:31:11.000Z,12.5
2023-02-03T09:32:23.000Z,12.4
2023-02-03T09:33:35.000Z,12.7
2023-02-03T09:34:47.000Z,12.7
2023-02-03T09:36:00.000Z,12.7
2023-02-03T09:37:12.000Z,12.5
2023-02-03T09:38:24.000Z,12.5
2023-02-03T09:39:36.000Z,12.4
2023-02-03T09:40:47.000Z,12.5
2023-02-03T09:42:02.672Z,12.7
2023-02-03T09:43:12.000Z,12.6
2023-02-03T09:44:24.000Z,12.6
2023-02-03T09:45:36.000Z,12.6
2023-02-03T09:46:48.000Z,12.6
2023-02-03T09:48:01.000Z,12.5
2023-02-03T09:49:13.000Z,12.4
2023-02-03T09:50:25.000Z,12.3
2023-02-03T09:51:37.000Z,12.5
2023-02-03T09:52:49.000Z,12.7
2023-02-03T09:54:01.000Z,12.5
2023-02-03T09:55:14.000Z,12.5
2023-02-03T09:56:25.000Z,12.6
2023-02-03T09:57:37.000Z,12.6
2023-02-03T09:58:49.000Z,13.1
2023-02-03T10:00:01.000Z,12.7
2023-02-03T10:01:14.000Z,13
2023-02-03T10:02:26.000Z,13.1
2023-02-03T10:03:38.000Z,13
2023-02-03T10:04:50.000Z,13.1
2023-02-03T10:06:02.000Z,12.3
2023-02-03T10:07:14.000Z,12.7
2023-02-03T10:08:27.000Z,13
2023-02-03T10:09:39.000Z,12.4
2023-02-03T10:10:51.000Z,12.6
2023-02-03T10:12:02.000Z,12.7
2023-02-03T10:13:14.000Z,12.7
2023-02-03T10:14:27.000Z,12.6
2023-02-03T10:15:39.000Z,12.4
2023-02-03T10:16:51.000Z,12.5
2023-02-03T10:18:03.000Z,12.5
2023-02-03T10:19:18.452Z,12.5
2023-02-03T10:20:28.000Z,12.5
2023-02-03T10:21:40.000Z,12.5
2023-02-03T10:22:52.000Z,13.1
2023-02-03T10:24:04.000Z,12.9
2023-02-03T10:25:16.000Z,12.7
2023-02-03T10:26:28.000Z,13.1
2023-02-03T10:27:40.000Z,12.6
2023-02-03T10:28:52.000Z,13.1
2023-02-03T10:30:04.000Z,12.4
2023-02-03T10:31:16.000Z,12.6
2023-02-03T10:32:28.000Z,13
2023-02-03T10:33:41.000Z,12.4
2023-02-03T10:34:53.000Z,12.6
2023-02-03T10:36:05.000Z,12.7
2023-02-03T10:37:17.000Z,12.7
2023-02-03T10:38:29.000Z,12.6
2023-02-03T10:39:42.000Z,13.1
2023-02-03T10:40:54.000Z,12.7
2023-02-03T10:42:06.000Z,12.5
2023-02-03T10:43:17.000Z,12.3
2023-02-03T10:44:29.000Z,12.8
2023-02-03T10:45:41.000Z,12.5
2023-02-03T10:46:54.000Z,12.4
2023-02-03T10:48:06.000Z,12.6
2023-02-03T10:49:18.000Z,12.6
2023-02-03T10:50:30.000Z,12.7
2023-02-03T10:51:42.000Z,12.6
2023-02-03T10:52:55.000Z,12.4
2023-02-03T10:54:07.000Z,12.7
2023-02-03T10:55:19.000Z,12.3
2023-02-03T10:56:31.000Z,12.7
2023-02-03T10:57:43.000Z,12.9
2023-02-03T10:58:54.000Z,12.5
2023-02-03T11:00:09.804Z,13.2
2023-02-03T11:01:19.000Z,13.1
2023-02-03T11:02:31.000Z,13.3
2023-02-03T11:03:43.000Z,12.6
2023-02-03T11:04:58.537Z,13.3
2023-02-03T11:06:08.000Z,13.3
2023-02-03T11:07:22.905Z,13.1
2023-02-03T11:08:32.000Z,13.2
2023-02-03T11:09:44.000Z,13.3
2023-02-03T11:10:56.000Z,13.2
2023-02-03T11:12:09.000Z,13.2
2023-02-03T11:13:21.000Z,12.6
2023-02-03T11:14:32.000Z,13
2023-02-03T11:15:44.000Z,12.6
2023-02-03T11:16:56.000Z,13.2
2023-02-03T11:18:08.000Z,13.3
2023-02-03T11:19:21.000Z,12.6
2023-02-03T11:20:33.000Z,12.7
2023-02-03T11:21:45.000Z,12.9
2023-02-03T11:23:00.316Z,13
2023-02-03T11:24:09.000Z,12.9
2023-02-03T11:25:22.000Z,13.3
2023-02-03T11:26:34.000Z,13
2023-02-03T11:27:46.000Z,12.7
2023-02-03T11:29:01.259Z,13.1
2023-02-03T11:30:09.000Z,12.6
2023-02-03T11:31:21.000Z,13.4
2023-02-03T11:32:34.000Z,13.3
2023-02-03T11:33:46.000Z,12.6
2023-02-03T11:34:58.000Z,13.3
2023-02-03T11:36:10.000Z,12.7
2023-02-03T11:37:22.000Z,13
2023-02-03T11:38:35.000Z,13.3
2023-02-03T11:39:47.000Z,12.6
2023-02-03T11:40:59.000Z,13.3
2023-02-03T11:42:11.000Z,13.1
2023-02-03T11:43:23.000Z,13.2
2023-02-03T11:44:36.000Z,12.6
2023-02-03T11:45:47.000Z,13.1
2023-02-03T11:46:59.000Z,13
2023-02-03T11:48:11.000Z,12.9
2023-02-03T11:49:22.000Z,12.9
2023-02-03T11:50:34.000Z,13.2
2023-02-03T11:51:47.000Z,13.3
2023-02-03T11:52:59.000Z,13.1
2023-02-03T11:54:11.000Z,13.1
2023-02-03T11:55:23.000Z,13.5
2023-02-03T11:56:35.000Z,13
2023-02-03T11:57:48.000Z,13.1
2023-02-03T11:59:00.000Z,13.3
2023-02-03T12:00:12.000Z,13.3
2023-02-03T12:01:24.000Z,13
2023-02-03T12:02:36.000Z,13.1
2023-02-03T12:03:49.000Z,12.7
2023-02-03T12:05:00.000Z,13.3
2023-02-03T12:06:12.000Z,13.1
2023-02-03T12:07:24.000Z,13.2
2023-02-03T12:08:36.000Z,13
2023-02-03T12:09:48.000Z,13.2
2023-02-03T12:11:01.000Z,13.3
2023-02-03T12:12:13.000Z,13.1
2023-02-03T12:13:25.000Z,13.3
2023-02-03T12:14:37.000Z,13.1
2023-02-03T12:15:49.000Z,13.3
2023-02-03T12:17:02.000Z,12.9
2023-02-03T12:18:14.000Z,12.7
2023-02-03T12:19:26.000Z,13.2
2023-02-03T12:20:38.000Z,13.1
2023-02-03T12:21:49.000Z,13.3
2023-02-03T12:23:01.000Z,13.3
2023-02-03T12:24:14.000Z,13.2
2023-02-03T12:25:26.000Z,13.2
2023-02-03T12:26:38.000Z,12.9
2023-02-03T12:27:50.000Z,13.2
2023-02-03T12:29:02.000Z,13.1
2023-02-03T12:30:15.000Z,12.9
2023-02-03T12:31:27.000Z,12.7
2023-02-03T12:32:39.000Z,12.7
2023-02-03T12:33:51.000Z,13.3
2023-02-03T12:35:03.000Z,13.3
2023-02-03T12:36:16.000Z,13.2
2023-02-03T12:37:27.000Z,13
2023-02-03T12:38:39.000Z,13.2
2023-02-03T12:39:51.000Z,13.2
2023-02-03T12:41:03.000Z,13.3
2023-02-03T12:42:18.634Z,13.1
2023-02-03T12:43:28.000Z,12.9
2023-02-03T12:44:40.000Z,13.1
2023-02-03T12:45:52.000Z,13.3
2023-02-03T12:47:04.000Z,12.9
2023-02-03T12:48:16.000Z,12.9
2023-02-03T12:49:31.740Z,12.9
2023-02-03T12:50:41.000Z,13.1
2023-02-03T12:51:53.000Z,13.1
2023-02-03T12:53:04.000Z,13.3
2023-02-03T12:54:16.000Z,13.2
2023-02-03T12:55:28.000Z,13.1
2023-02-03T12:56:41.000Z,13.1
2023-02-03T12:57:53.000Z,13.1
2023-02-03T12:59:05.000Z,13.3
2023-02-03T13:00:20.430Z,13
2023-02-03T13:01:29.000Z,13.2
2023-02-03T13:02:42.000Z,13
2023-02-03T13:03:54.000Z,13.2
2023-02-03T13:05:06.000Z,13.2
2023-02-03T13:06:18.000Z,13
2023-02-03T13:07:30.000Z,13.3
2023-02-03T13:08:43.000Z,13
2023-02-03T13:09:54.000Z,13
2023-02-03T13:11:06.000Z,13.2
2023-02-03T13:12:18.000Z,13.1
2023-02-03T13:13:30.000Z,13.4
2023-02-03T13:14:45.656Z,13.3
2023-02-03T13:15:55.000Z,13.3
2023-02-03T13:17:07.000Z,13.3
2023-02-03T13:18:22.218Z,13.2
2023-02-03T13:19:31.000Z,13.5
2023-02-03T13:20:43.000Z,13.4
2023-02-03T13:21:56.000Z,13.5
2023-02-03T13:23:08.000Z,13.2
2023-02-03T13:24:20.000Z,13.4
2023-02-03T13:25:31.000Z,13.2
2023-02-03T13:26:43.000Z,13.2
2023-02-03T13:27:55.000Z,13.2
2023-02-03T13:29:08.000Z,13
2023-02-03T13:30:20.000Z,13.4
2023-02-03T13:31:32.000Z,13.1
2023-02-03T13:32:44.000Z,13.1
2023-02-03T13:33:56.000Z,13.2
2023-02-03T13:35:09.000Z,13.1
2023-02-03T13:36:21.000Z,13.3
2023-02-03T13:37:33.000Z,13.4
2023-02-03T13:38:45.000Z,13.2
2023-02-03T13:39:57.000Z,13.3
2023-02-03T13:41:10.000Z,13
2023-02-03T13:42:21.000Z,13.3
2023-02-03T13:43:36.124Z,13
2023-02-03T13:44:45.000Z,13.2
2023-02-03T13:45:57.000Z,13.1
2023-02-03T13:47:09.000Z,13.1
2023-02-03T13:48:22.000Z,13.4
2023-02-03T13:49:34.000Z,13.4
2023-02-03T13:50:46.000Z,13.2
2023-02-03T13:51:58.000Z,13.1
2023-02-03T13:53:10.000Z,13.1
2023-02-03T13:54:23.000Z,13
2023-02-03T13:55:35.000Z,13.5
2023-02-03T13:56:47.000Z,13.5
2023-02-03T13:57:58.000Z,13.3
2023-02-03T13:59:10.000Z,13.4
2023-02-03T14:00:23.000Z,13
2023-02-03T14:01:35.000Z,13.1
2023-02-03T14:02:47.000Z,13.4
2023-02-03T14:03:59.000Z,13.5
2023-02-03T14:05:11.000Z,13.2
2023-02-03T14:06:26.658Z,13.4
2023-02-03T14:07:36.000Z,13.2
2023-02-03T14:08:48.000Z,13.1
2023-02-03T14:10:00.000Z,13
2023-02-03T14:11:12.000Z,13.5
2023-02-03T14:12:24.000Z,13.2
2023-02-03T14:13:36.000Z,13.5
2023-02-03T14:14:48.000Z,13.1
2023-02-03T14:16:00.000Z,13
2023-02-03T14:17:12.000Z,13.5
2023-02-03T14:18:24.000Z,13.2
2023-02-03T14:19:36.000Z,13.4
2023-02-03T14:20:49.000Z,13.1
2023-02-03T14:22:01.000Z,13.5
2023-02-03T14:23:13.000Z,13.3
2023-02-03T14:24:25.000Z,13.3
2023-02-03T14:25:37.000Z,13.1
2023-02-03T14:26:52.825Z,13.4
2023-02-03T14:28:02.000Z,13.2
2023-02-03T14:29:13.000Z,13.5
2023-02-03T14:30:25.000Z,13.3
2023-02-03T14:31:37.000Z,13.5
2023-02-03T14:32:50.000Z,13.3
2023-02-03T14:34:02.000Z,13.2
2023-02-03T14:35:14.000Z,13
2023-02-03T14:36:26.000Z,13.4
2023-02-03T14:37:38.000Z,13
2023-02-03T14:38:50.000Z,13.2
2023-02-03T14:40:03.000Z,13.1
2023-02-03T14:41:15.000Z,13.5
2023-02-03T14:42:27.000Z,13.4
2023-02-03T14:43:39.000Z,13.1
2023-02-03T14:44:50.000Z,13.3
2023-02-03T14:46:03.000Z,13.1
2023-02-03T14:47:15.000Z,13.5
2023-02-03T14:48:27.000Z,13.1
2023-02-03T14:49:39.000Z,13.1
2023-02-03T14:50:51.000Z,13.5
2023-02-03T14:52:03.000Z,13.3
2023-02-03T14:53:16.000Z,13.4
2023-02-03T14:54:28.000Z,12.7
2023-02-03T14:55:40.000Z,12.9
2023-02-03T14:56:52.000Z,13.3
2023-02-03T14:58:04.000Z,13.4
2023-02-03T14:59:17.000Z,13
2023-02-03T15:00:29.000Z,13.4
2023-02-03T15:01:40.000Z,13.4
2023-02-03T15:02:52.000Z,13.3
2023-02-03T15:04:04.000Z,13.1
2023-02-03T15:05:17.000Z,12.6
2023-02-03T15:06:29.000Z,13.3
2023-02-03T15:07:41.000Z,13.4
2023-02-03T15:08:53.000Z,13.5
2023-02-03T15:10:05.000Z,13.4
2023-02-03T15:11:17.000Z,13.2
2023-02-03T15:12:30.000Z,13
2023-02-03T15:13:42.000Z,13.1
2023-02-03T15:14:54.000Z,13.4
2023-02-03T15:16:06.000Z,13.4
2023-02-03T15:17:17.000Z,13.5
2023-02-03T15:18:30.000Z,13.2
2023-02-03T15:19:42.000Z,13.3
2023-02-03T15:20:54.000Z,13.2
2023-02-03T15:22:06.000Z,13.4
2023-02-03T15:23:18.000Z,13.3
2023-02-03T15:24:30.000Z,13.2
2023-02-03T15:25:43.000Z,13.2
2023-02-03T15:26:55.000Z,13.3
2023-02-03T15:28:07.000Z,13.1
2023-02-03T15:29:19.000Z,13.1
2023-02-03T15:30:31.000Z,13
2023-02-03T15:31:44.000Z,13.4
2023-02-03T15:32:56.000Z,13.4
2023-02-03T15:34:07.000Z,13.1
2023-02-03T15:35:19.000Z,13.3
2023-02-03T15:36:31.000Z,13.8
2023-02-03T15:37:44.000Z,12.6
2023-02-03T15:38:56.000Z,13.2
2023-02-03T15:40:08.000Z,13.1
2023-02-03T15:41:20.000Z,13.3
2023-02-03T15:42:32.000Z,12.9
2023-02-03T15:43:44.000Z,13.2
2023-02-03T15:44:57.000Z,13.5
2023-02-03T15:46:09.000Z,13.3
2023-02-03T15:47:24.304Z,13.3
2023-02-03T15:48:33.000Z,13.3
2023-02-03T15:49:45.000Z,12.6
2023-02-03T15:50:57.000Z,13.1
2023-02-03T15:52:09.000Z,13.2
2023-02-03T15:53:21.000Z,13
2023-02-03T15:54:33.000Z,13.3
2023-02-03T15:55:45.000Z,13
2023-02-03T15:57:00.805Z,13.2
2023-02-03T15:58:10.000Z,12.6
2023-02-03T15:59:22.000Z,13.1
2023-02-03T16:00:34.000Z,13
2023-02-03T16:01:46.000Z,13.2
2023-02-03T16:02:58.000Z,13.3
2023-02-03T16:04:11.000Z,13.3
2023-02-03T16:05:23.000Z,13.3
2023-02-03T16:06:34.000Z,13